Time;durP1;ratioP1;P1;durP2;ratioP2;P2;SDS_P1;SDS_P2;PMS_P1;PMS_P2;Temp;Humidity;BMP_temperature;BMP_pressure;BME280_temperature;BME280_humidity;BME280_pressure;Samples;Min_cycle;Max_cycle;Signal;HPM_P1;HPM_P2
2021/03/09 00:01:32;;;;;;;;;;;;;;;3.53;100.00;101527.34;5022010;28;19929;-85
2021/03/09 00:03:58;;;;;;;;;;;;;;;3.52;100.00;101531.81;5016295;28;19968;-86
2021/03/09 00:06:23;;;;;;;;;;;;;;;3.52;100.00;101528.31;5050610;28;19921;-83
2021/03/09 00:08:48;;;;;;;;;;;;;;;3.50;100.00;101531.06;5055579;28;19918;-83
2021/03/09 00:11:13;;;;;;;;;;;;;;;3.49;100.00;101528.53;5057093;28;20388;-82
2021/03/09 00:13:39;;;;;;;;;;;;;;;3.49;100.00;101531.19;5021003;28;19961;-85
2021/03/09 00:16:04;;;;;;;;;;;;;;;3.48;100.00;101530.34;5013616;28;19921;-82
2021/03/09 00:18:30;;;;;;;;;;;;;;;3.47;100.00;101527.75;5022924;28;19918;-81
2021/03/09 00:20:55;;;;;;;;;;;;;;;3.48;100.00;101529.47;5028872;28;19966;-87
2021/03/09 00:23:20;;;;;;;;;;;;;;;3.48;100.00;101526.81;5024511;28;19932;-84
2021/03/09 00:25:45;;;;;;;;;;;;;;;3.46;100.00;101526.06;5023230;28;19925;-82
2021/03/09 00:28:10;;;;;;;;;;;;;;;3.45;100.00;101519.03;5029351;28;19931;-84
2021/03/09 00:30:36;;;;;;;;;;;;;;;3.46;100.00;101520.78;5028269;28;19917;-83
2021/03/09 00:33:01;;;;;;;;;;;;;;;3.45;100.00;101514.59;5028282;28;19925;-85
2021/03/09 00:35:26;;;;;;;;;;;;;;;3.45;100.00;101517.25;5060564;28;19979;-85
2021/03/09 00:37:51;;;;;;;;;;;;;;;3.44;100.00;101517.34;5051339;28;19927;-84
2021/03/09 00:40:17;;;;;;;;;;;;;;;3.44;100.00;101506.75;5029241;28;20011;-80
2021/03/09 00:42:42;;;;;;;;;;;;;;;3.42;100.00;101505.97;5022348;28;20413;-83
2021/03/09 00:45:07;;;;;;;;;;;;;;;3.39;100.00;101499.94;5045032;28;19924;-86
2021/03/09 00:47:33;;;;;;;;;;;;;;;3.35;100.00;101498.44;5050589;28;20322;-86
2021/03/09 00:49:59;;;;;;;;;;;;;;;3.36;100.00;101496.63;5052987;28;19917;-83
2021/03/09 00:52:24;;;;;;;;;;;;;;;3.35;100.00;101482.50;5027549;28;19928;-81
2021/03/09 00:54:49;;;;;;;;;;;;;;;3.34;100.00;101498.53;5026925;28;20232;-84
2021/03/09 00:57:14;;;;;;;;;;;;;;;3.34;100.00;101486.13;5041775;28;19921;-81
2021/03/09 00:59:40;;;;;;;;;;;;;;;3.34;100.00;101491.44;5043429;28;19921;-83
2021/03/09 01:02:05;;;;;;;;;;;;;;;3.33;100.00;101481.75;5020060;28;19926;-84
2021/03/09 01:04:30;;;;;;;;;;;;;;;3.33;100.00;101484.41;5041587;28;20275;-81
2021/03/09 01:06:55;;;;;;;;;;;;;;;3.35;100.00;101471.06;5029228;28;19921;-83
2021/03/09 01:09:20;;;;;;;;;;;;;;;3.35;100.00;101477.19;5018003;28;19928;-83
2021/03/09 01:11:46;;;;;;;;;;;;;;;3.32;100.00;101480.06;5022546;28;19925;-81
2021/03/09 01:14:11;;;;;;;;;;;;;;;3.31;100.00;101475.72;5037949;28;20015;-83
2021/03/09 01:16:36;;;;;;;;;;;;;;;3.28;100.00;101475.91;5020879;28;19921;-80
2021/03/09 01:19:01;;;;;;;;;;;;;;;3.26;100.00;101472.50;5026575;28;20032;-84
2021/03/09 01:21:27;;;;;;;;;;;;;;;3.27;100.00;101473.34;5023932;28;20063;-85
2021/03/09 01:23:52;;;;;;;;;;;;;;;3.23;100.00;101463.91;5045220;28;19929;-83
2021/03/09 01:26:17;;;;;;;;;;;;;;;3.22;100.00;101464.84;5021097;28;21615;-84
2021/03/09 01:28:42;;;;;;;;;;;;;;;3.23;100.00;101467.41;5023629;28;20023;-83
2021/03/09 01:31:08;;;;;;;;;;;;;;;3.25;100.00;101469.94;5021903;28;19926;-82
2021/03/09 01:33:33;;;;;;;;;;;;;;;3.19;100.00;101460.59;5016754;28;19921;-81
2021/03/09 01:35:59;;;;;;;;;;;;;;;3.19;100.00;101457.09;5018479;28;19921;-82
2021/03/09 01:38:24;;;;;;;;;;;;;;;3.19;100.00;101454.44;5018376;28;20008;-84
2021/03/09 01:40:49;;;;;;;;;;;;;;;3.16;100.00;101448.41;5021762;28;19963;-83
2021/03/09 01:43:14;;;;;;;;;;;;;;;3.14;100.00;101445.00;5021656;28;19948;-86
2021/03/09 01:45:40;;;;;;;;;;;;;;;3.16;100.00;101440.44;5017419;28;20417;-84
2021/03/09 01:48:06;;;;;;;;;;;;;;;3.16;100.00;101442.22;5040074;28;19964;-82
2021/03/09 01:50:33;;;;;;;;;;;;;;;3.15;100.00;101441.38;5026703;28;19929;-82
2021/03/09 01:53:01;;;;;;;;;;;;;;;3.15;100.00;101429.91;5028502;28;19956;-81
2021/03/09 01:55:26;;;;;;;;;;;;;;;3.11;100.00;101439.03;5029148;28;19925;-83
2021/03/09 01:57:51;;;;;;;;;;;;;;;3.11;100.00;101436.38;5017438;28;20008;-82
2021/03/09 02:00:17;;;;;;;;;;;;;;;3.09;100.00;101430.31;5013216;28;20366;-85
2021/03/09 02:02:42;;;;;;;;;;;;;;;3.07;100.00;101433.06;5028806;28;19930;-82
2021/03/09 02:05:08;;;;;;;;;;;;;;;3.07;100.00;101411.84;5040945;28;20031;-83
2021/03/09 02:07:34;;;;;;;;;;;;;;;3.09;100.00;101417.06;5025731;28;19921;-80
2021/03/09 02:10:00;;;;;;;;;;;;;;;3.06;100.00;101406.66;5023898;28;19967;-86
2021/03/09 02:12:28;;;;;;;;;;;;;;;3.03;100.00;101406.88;5025197;28;19928;-81
2021/03/09 02:15:02;;;;;;;;;;;;;;;3.01;100.00;101403.47;5027626;28;19926;-81
2021/03/09 02:17:45;;;;;;;;;;;;;;;2.99;100.00;101400.03;5039578;28;20008;-84
2021/03/09 02:20:29;;;;;;;;;;;;;;;2.94;100.00;101401.22;5004737;28;20366;-81
2021/03/09 02:23:09;;;;;;;;;;;;;;;2.97;100.00;101394.00;5000113;28;19934;-83
2021/03/09 02:25:34;;;;;;;;;;;;;;;2.97;100.00;101389.56;5017239;28;20294;-86
2021/03/09 02:28:26;;;;;;;;;;;;;;;2.97;100.00;101386.06;5011265;28;19922;-85
2021/03/09 02:30:52;;;;;;;;;;;;;;;2.93;100.00;101382.72;5012321;28;19932;-83
2021/03/09 02:33:19;;;;;;;;;;;;;;;2.82;100.00;101378.16;5021995;28;19917;-81
2021/03/09 02:35:51;;;;;;;;;;;;;;;2.84;100.00;101376.22;5027930;28;19937;-83
2021/03/09 02:38:18;;;;;;;;;;;;;;;2.83;100.00;101365.75;5005776;28;19929;-83
2021/03/09 02:40:44;;;;;;;;;;;;;;;2.77;100.00;101380.25;5002532;28;20384;-84
2021/03/09 02:43:11;;;;;;;;;;;;;;;2.76;100.00;101365.28;5054298;28;19925;-85
2021/03/09 02:45:37;;;;;;;;;;;;;;;2.74;100.00;101372.50;5024794;28;19928;-84
2021/03/09 02:48:03;;;;;;;;;;;;;;;2.76;100.00;101365.28;5027101;28;19921;-82
2021/03/09 02:50:29;;;;;;;;;;;;;;;2.71;100.00;101343.53;5026959;28;20397;-80
2021/03/09 02:53:00;;;;;;;;;;;;;;;2.71;100.00;101348.84;5055351;28;19944;-80
2021/03/09 02:55:26;;;;;;;;;;;;;;;2.71;100.00;101343.53;5026230;28;20293;-83
2021/03/09 02:57:52;;;;;;;;;;;;;;;2.66;100.00;101341.19;5008134;28;19925;-81
2021/03/09 03:00:18;;;;;;;;;;;;;;;2.65;100.00;101343.94;5049093;28;19959;-83
2021/03/09 03:02:44;;;;;;;;;;;;;;;2.63;100.00;101335.25;5033068;28;20021;-79
2021/03/09 03:05:10;;;;;;;;;;;;;;;2.64;100.00;101336.94;5022097;28;19960;-86
2021/03/09 03:07:37;;;;;;;;;;;;;;;2.61;100.00;101335.31;5026470;28;20408;-84
2021/03/09 03:10:04;;;;;;;;;;;;;;;2.62;100.00;101339.69;5004945;28;19921;-83
2021/03/09 03:12:31;;;;;;;;;;;;;;;2.63;100.00;101330.78;5032613;28;20488;-82
2021/03/09 03:14:57;;;;;;;;;;;;;;;2.62;100.00;101337.06;5011456;28;20420;-86
2021/03/09 03:17:22;;;;;;;;;;;;;;;2.59;100.00;101328.41;5018357;28;19921;-83
2021/03/09 03:19:50;;;;;;;;;;;;;;;2.59;100.00;101333.72;5008697;28;19918;-85
2021/03/09 03:22:16;;;;;;;;;;;;;;;2.59;100.00;101324.00;5022395;28;19928;-83
2021/03/09 03:24:41;;;;;;;;;;;;;;;2.61;100.00;101326.53;5011849;28;20313;-82
2021/03/09 03:27:06;;;;;;;;;;;;;;;2.57;100.00;101320.59;5042999;28;20286;-82
2021/03/09 03:29:32;;;;;;;;;;;;;;;2.54;100.00;101314.66;5041628;28;19922;-80
2021/03/09 03:31:57;;;;;;;;;;;;;;;2.51;100.00;101310.41;5027648;28;19921;-84
2021/03/09 03:34:23;;;;;;;;;;;;;;;2.54;100.00;101314.66;5025583;28;20416;-85
2021/03/09 03:36:48;;;;;;;;;;;;;;;2.53;100.00;101303.19;5023896;28;19921;-85
2021/03/09 03:39:13;;;;;;;;;;;;;;;2.51;100.00;101302.44;5040768;28;20352;-82
2021/03/09 03:41:39;;;;;;;;;;;;;;;2.54;100.00;101306.69;5040839;28;19925;-82
2021/03/09 03:44:05;;;;;;;;;;;;;;;2.54;100.00;101304.06;5025412;28;20000;-84
2021/03/09 03:46:30;;;;;;;;;;;;;;;2.49;100.00;101302.53;5028970;28;20012;-83
2021/03/09 03:48:56;;;;;;;;;;;;;;;2.48;100.00;101298.19;5020353;28;20378;-83
2021/03/09 03:51:26;;;;;;;;;;;;;;;2.46;100.00;101289.50;5010714;28;20405;-83
2021/03/09 03:54:07;;;;;;;;;;;;;;;2.45;100.00;101285.16;5012592;28;19940;-83
2021/03/09 03:56:32;;;;;;;;;;;;;;;2.46;100.00;101291.28;5012783;28;20033;-85
2021/03/09 03:59:05;;;;;;;;;;;;;;;2.46;100.00;101286.84;5025891;28;19961;-81
2021/03/09 04:01:31;;;;;;;;;;;;;;;2.42;100.00;101276.56;5022554;28;20531;-81
2021/03/09 04:03:58;;;;;;;;;;;;;;;2.42;100.00;101279.22;5023342;28;19929;-83
2021/03/09 04:06:28;;;;;;;;;;;;;;;2.41;100.00;101274.84;5020626;28;19961;-83
2021/03/09 04:08:58;;;;;;;;;;;;;;;2.40;100.00;101271.34;5052746;28;19936;-82
2021/03/09 04:11:25;;;;;;;;;;;;;;;2.42;100.00;101265.97;5040159;28;19932;-83
2021/03/09 04:13:51;;;;;;;;;;;;;;;2.41;100.00;101267.75;5056431;28;20389;-87
2021/03/09 04:16:16;;;;;;;;;;;;;;;2.40;100.00;101258.09;5043032;28;19924;-80
2021/03/09 04:18:43;;;;;;;;;;;;;;;2.41;100.00;101257.13;5054316;28;19955;-83
2021/03/09 04:21:08;;;;;;;;;;;;;;;2.39;100.00;101260.88;5040390;28;20421;-82
2021/03/09 04:23:34;;;;;;;;;;;;;;;2.39;100.00;101259.06;5022669;28;20277;-83
2021/03/09 04:26:00;;;;;;;;;;;;;;;2.38;100.00;101251.19;5047432;28;19929;-82
2021/03/09 04:28:26;;;;;;;;;;;;;;;2.36;100.00;101247.78;5029388;28;19921;-83
2021/03/09 04:30:51;;;;;;;;;;;;;;;2.36;100.00;101253.09;5024315;28;19936;-83
2021/03/09 04:33:17;;;;;;;;;;;;;;;2.36;100.00;101256.63;5045968;28;20279;-84
2021/03/09 04:35:42;;;;;;;;;;;;;;;2.35;100.00;101244.31;5025258;28;19921;-79
2021/03/09 04:38:08;;;;;;;;;;;;;;;2.34;100.00;101250.56;5057488;28;19953;-84
2021/03/09 04:40:34;;;;;;;;;;;;;;;2.32;100.00;101244.50;5053901;28;19921;-82
2021/03/09 04:42:59;;;;;;;;;;;;;;;2.32;100.00;101239.22;5026292;28;19929;-84
2021/03/09 04:45:24;;;;;;;;;;;;;;;2.31;100.00;101241.97;5056295;28;20142;-83
2021/03/09 04:47:50;;;;;;;;;;;;;;;2.31;100.00;101249.91;5020445;28;19928;-81
2021/03/09 04:50:15;;;;;;;;;;;;;;;2.31;100.00;101229.56;5017597;28;20306;-85
2021/03/09 04:52:42;;;;;;;;;;;;;;;2.35;100.00;101240.81;5006426;28;19961;-81
2021/03/09 04:55:07;;;;;;;;;;;;;;;2.37;100.00;101237.13;5034489;28;19931;-85
2021/03/09 04:57:37;;;;;;;;;;;;;;;2.37;100.00;101247.72;5024467;28;19925;-82
2021/03/09 05:00:06;;;;;;;;;;;;;;;2.37;100.00;101236.28;5011173;28;19922;-83
2021/03/09 05:02:31;;;;;;;;;;;;;;;2.39;100.00;101248.47;5021955;28;19987;-83
2021/03/09 05:04:57;;;;;;;;;;;;;;;2.39;100.00;101240.53;5023161;28;19932;-82
2021/03/09 05:07:23;;;;;;;;;;;;;;;2.41;100.00;101246.53;5016208;28;19928;-86
2021/03/09 05:09:49;;;;;;;;;;;;;;;2.40;100.00;101236.06;5025908;28;20482;-81
2021/03/09 05:12:14;;;;;;;;;;;;;;;2.40;100.00;101234.25;5036927;28;20549;-83
2021/03/09 05:14:39;;;;;;;;;;;;;;;2.43;100.00;101234.06;5018444;28;20356;-86
2021/03/09 05:17:04;;;;;;;;;;;;;;;2.44;100.00;101229.59;5026110;28;19929;-83
2021/03/09 05:19:30;;;;;;;;;;;;;;;2.45;100.00;101236.63;5025944;28;19943;-85
2021/03/09 05:21:55;;;;;;;;;;;;;;;2.47;100.00;101226.75;5027349;28;20023;-82
2021/03/09 05:24:20;;;;;;;;;;;;;;;2.48;100.00;101231.13;5032697;28;19921;-83
2021/03/09 05:26:46;;;;;;;;;;;;;;;2.48;100.00;101224.00;5029446;28;20059;-85
2021/03/09 05:29:11;;;;;;;;;;;;;;;2.48;100.00;101225.81;5029879;28;19948;-82
2021/03/09 05:31:36;;;;;;;;;;;;;;;2.49;100.00;101222.22;5026938;28;19921;-84
2021/03/09 05:34:01;;;;;;;;;;;;;;;2.49;100.00;101220.41;5009471;28;19930;-80
2021/03/09 05:36:29;;;;;;;;;;;;;;;2.49;100.00;101223.06;5015018;28;19928;-85
2021/03/09 05:38:54;;;;;;;;;;;;;;;2.53;100.00;101217.53;5030163;28;19929;-82
2021/03/09 05:41:19;;;;;;;;;;;;;;;2.53;100.00;101214.91;5039979;28;19921;-86
2021/03/09 05:43:45;;;;;;;;;;;;;;;2.55;100.00;101213.84;5044134;28;20385;-83
2021/03/09 05:46:10;;;;;;;;;;;;;;;2.56;100.00;101209.41;5021992;28;19925;-84
2021/03/09 05:48:37;;;;;;;;;;;;;;;2.54;100.00;101209.50;5021183;28;19929;-83
2021/03/09 05:51:02;;;;;;;;;;;;;;;2.55;100.00;101210.34;5022970;28;19921;-84
2021/03/09 05:53:27;;;;;;;;;;;;;;;2.55;100.00;101207.72;5022606;28;19921;-80
2021/03/09 05:55:56;;;;;;;;;;;;;;;2.56;100.00;101209.41;5058739;28;19922;-81
2021/03/09 05:58:30;;;;;;;;;;;;;;;2.57;100.00;101203.16;5018532;28;19924;-83
2021/03/09 06:00:58;;;;;;;;;;;;;;;2.58;100.00;101210.16;5011058;28;20410;-80
2021/03/09 06:03:45;;;;;;;;;;;;;;;2.59;100.00;101211.84;5036522;28;20438;-84
2021/03/09 06:06:19;;;;;;;;;;;;;;;2.59;100.00;101195.94;5043046;28;19924;-86
2021/03/09 06:11:48;;;;;;;;;;;;;;;2.61;100.00;101197.53;4959021;28;19923;-81
2021/03/09 06:14:23;;;;;;;;;;;;;;;2.63;100.00;101194.81;4950769;28;20398;-82
2021/03/09 06:16:54;;;;;;;;;;;;;;;2.64;100.00;101194.69;4972924;28;20732;-83
2021/03/09 06:19:22;;;;;;;;;;;;;;;2.66;100.00;101198.09;4966340;28;19929;-83
2021/03/09 06:21:55;;;;;;;;;;;;;;;2.65;100.00;101193.75;4958969;28;20402;-85
2021/03/09 06:24:32;;;;;;;;;;;;;;;2.66;100.00;101197.25;4982941;28;20366;-85
2021/03/09 06:27:06;;;;;;;;;;;;;;;2.66;100.00;101189.28;4938331;28;20387;-85
2021/03/09 06:29:32;;;;;;;;;;;;;;;2.67;100.00;101193.63;4936314;28;19926;-81
2021/03/09 06:32:04;;;;;;;;;;;;;;;2.66;100.00;101186.63;4927992;28;19937;-80
2021/03/09 06:34:38;;;;;;;;;;;;;;;2.67;100.00;101188.31;4906669;28;19954;-83
2021/03/09 06:37:15;;;;;;;;;;;;;;;2.69;100.00;101186.44;4936132;28;20029;-86
2021/03/09 06:39:47;;;;;;;;;;;;;;;2.69;100.00;101202.34;4936830;28;19930;-83
2021/03/09 06:42:18;;;;;;;;;;;;;;;2.69;100.00;101191.72;4927664;28;19931;-82
2021/03/09 06:44:55;;;;;;;;;;;;;;;2.72;100.00;101202.13;4907980;28;19978;-81
2021/03/09 06:47:49;;;;;;;;;;;;;;;2.72;100.00;101192.38;4932239;28;19931;-84
2021/03/09 06:50:24;;;;;;;;;;;;;;;2.73;100.00;101193.22;4931626;28;20419;-85
2021/03/09 06:53:04;;;;;;;;;;;;;;;2.75;100.00;101193.97;4929929;28;20355;-83
2021/03/09 06:55:33;;;;;;;;;;;;;;;2.75;100.00;101191.31;4929733;28;19919;-83
2021/03/09 06:58:11;;;;;;;;;;;;;;;2.77;100.00;101197.38;4905849;29;19965;-82
2021/03/09 07:00:37;;;;;;;;;;;;;;;2.76;100.00;101195.66;4905057;28;19930;-82
2021/03/09 07:03:26;;;;;;;;;;;;;;;2.78;100.00;101196.41;4915610;28;19934;-83
2021/03/09 07:06:02;;;;;;;;;;;;;;;2.80;100.00;101201.63;4905902;29;20455;-78
2021/03/09 07:08:41;;;;;;;;;;;;;;;2.82;100.00;101203.22;4936843;28;19955;-82
2021/03/09 07:11:09;;;;;;;;;;;;;;;2.82;100.00;101208.50;4911911;28;20057;-81
2021/03/09 07:13:40;;;;;;;;;;;;;;;2.84;100.00;101203.94;4959083;28;19952;-82
2021/03/09 07:16:08;;;;;;;;;;;;;;;2.85;100.00;101208.31;4964316;28;19965;-84
2021/03/09 07:18:38;;;;;;;;;;;;;;;2.87;100.00;101205.53;4978825;28;19955;-84
2021/03/09 07:21:07;;;;;;;;;;;;;;;2.88;100.00;101202.78;4970502;28;20332;-80
2021/03/09 07:23:33;;;;;;;;;;;;;;;2.88;100.00;101208.09;4975198;28;19929;-84
2021/03/09 07:26:05;;;;;;;;;;;;;;;2.91;100.00;101210.53;5012121;28;19999;-82
2021/03/09 07:28:45;;;;;;;;;;;;;;;2.91;100.00;101209.69;4982869;28;20437;-82
2021/03/09 07:31:14;;;;;;;;;;;;;;;2.94;100.00;101206.81;4979086;28;20014;-85
2021/03/09 07:33:44;;;;;;;;;;;;;;;2.97;100.00;101208.41;4938398;28;20989;-81
2021/03/09 07:36:17;;;;;;;;;;;;;;;2.98;100.00;101212.75;4908488;28;19958;-80
2021/03/09 07:39:01;;;;;;;;;;;;;;;2.97;100.00;101211.91;4855247;29;19975;-83
2021/03/09 07:41:49;;;;;;;;;;;;;;;2.98;100.00;101218.06;4869931;29;19966;-82
2021/03/09 07:44:22;;;;;;;;;;;;;;;3.00;100.00;101226.78;4852144;29;19932;-80
2021/03/09 07:47:10;;;;;;;;;;;;;;;3.02;100.00;101219.53;4704220;29;4375324;-83
2021/03/09 07:50:14;;;;;;;;;;;;;;;3.03;100.00;101213.31;4275196;29;9191496;-83
2021/03/09 07:53:11;;;;;;;;;;;;;;;3.03;100.00;101215.94;4458511;29;5945244;-83
2021/03/09 07:55:57;;;;;;;;;;;;;;;3.04;100.00;101215.00;4557169;29;4085909;-84
2021/03/09 07:58:33;;;;;;;;;;;;;;;3.05;100.00;101214.03;4252159;29;8980832;-82
2021/03/09 08:01:02;;;;;;;;;;;;;;;3.06;100.00;101215.75;4813964;29;20066;-85
2021/03/09 08:03:36;;;;;;;;;;;;;;;3.07;100.00;101206.81;4857382;29;20428;-82
2021/03/09 08:06:10;;;;;;;;;;;;;;;3.08;100.00;101208.50;4862578;29;19927;-81
2021/03/09 08:08:37;;;;;;;;;;;;;;;3.09;100.00;101200.47;4867187;28;19923;-81
2021/03/09 08:11:27;;;;;;;;;;;;;;;3.09;100.00;101207.56;4922408;28;19958;-82
2021/03/09 08:14:07;;;;;;;;;;;;;;;3.10;100.00;101217.22;4909227;28;19930;-82
2021/03/09 08:16:38;;;;;;;;;;;;;;;3.11;100.00;101211.81;4890143;29;19930;-82
2021/03/09 08:19:10;;;;;;;;;;;;;;;3.13;100.00;101214.34;4956791;28;19928;-84
2021/03/09 08:21:44;;;;;;;;;;;;;;;3.15;100.00;101209.78;4985926;28;20338;-82
2021/03/09 08:24:20;;;;;;;;;;;;;;;3.15;100.00;101205.34;4984597;28;19929;-80
2021/03/09 08:26:52;;;;;;;;;;;;;;;3.17;100.00;101218.50;4958545;28;19930;-84
2021/03/09 08:29:55;;;;;;;;;;;;;;;3.19;100.00;101211.25;4965819;28;20366;-82
2021/03/09 08:32:23;;;;;;;;;;;;;;;3.21;100.00;101213.81;4923234;28;19923;-82
2021/03/09 08:35:07;;;;;;;;;;;;;;;3.21;100.00;101211.16;4979898;28;20497;-81
2021/03/09 08:37:39;;;;;;;;;;;;;;;3.21;100.00;101217.31;4950081;28;19956;-81
2021/03/09 08:40:12;;;;;;;;;;;;;;;3.20;100.00;101212.97;4969548;28;19928;-81
2021/03/09 08:43:12;;;;;;;;;;;;;;;3.21;100.00;101201.41;4928447;28;19941;-82
2021/03/09 08:45:42;;;;;;;;;;;;;;;3.26;100.00;101206.41;4924165;28;19946;-83
2021/03/09 08:48:16;;;;;;;;;;;;;;;3.27;100.00;101205.44;4959188;28;19960;-83
2021/03/09 08:50:45;;;;;;;;;;;;;;;3.30;100.00;101211.38;4949255;28;20254;-82
2021/03/09 08:53:29;;;;;;;;;;;;;;;3.31;100.00;101199.81;4937060;28;19923;-85
2021/03/09 08:56:31;;;;;;;;;;;;;;;3.33;100.00;101197.03;4880134;29;19927;-82
2021/03/09 08:59:07;;;;;;;;;;;;;;;3.34;100.00;101201.41;4916540;29;19926;-84
2021/03/09 09:01:35;;;;;;;;;;;;;;;3.35;100.00;101201.28;4892116;29;20018;-81
2021/03/09 09:04:17;;;;;;;;;;;;;;;3.36;100.00;101202.97;4895459;29;20625;-79
2021/03/09 09:06:49;;;;;;;;;;;;;;;3.38;100.00;101190.47;4848245;29;20022;-81
2021/03/09 09:09:31;;;;;;;;;;;;;;;3.42;100.00;101196.41;4865732;29;19940;-82
2021/03/09 09:12:26;;;;;;;;;;;;;;;3.43;100.00;101198.09;4861974;29;19935;-84
2021/03/09 09:15:12;;;;;;;;;;;;;;;3.45;100.00;101197.97;4866830;29;20288;-78
2021/03/09 09:18:12;;;;;;;;;;;;;;;3.45;100.00;101190.03;4867168;29;20031;-80
2021/03/09 09:20:51;;;;;;;;;;;;;;;3.49;100.00;101202.13;4839592;29;19934;-80
2021/03/09 09:23:26;;;;;;;;;;;;;;;3.50;100.00;101191.41;4851526;29;19927;-79
2021/03/09 09:25:58;;;;;;;;;;;;;;;3.53;100.00;101198.28;4837532;29;20361;-78
2021/03/09 09:28:44;;;;;;;;;;;;;;;3.57;100.00;101195.31;4853165;29;19928;-78
2021/03/09 09:31:40;;;;;;;;;;;;;;;3.61;100.00;101188.00;4867905;29;20072;-81
2021/03/09 09:34:16;;;;;;;;;;;;;;;3.65;100.00;101199.22;4922575;28;19931;-77
2021/03/09 09:36:44;;;;;;;;;;;;;;;3.67;100.00;101192.84;4914278;28;19930;-81
2021/03/09 09:39:20;;;;;;;;;;;;;;;3.70;100.00;101200.59;4950764;28;20338;-78
2021/03/09 09:41:51;;;;;;;;;;;;;;;3.75;100.00;101209.09;4930872;28;19931;-79
2021/03/09 09:44:16;;;;;;;;;;;;;;;3.74;100.00;101207.41;4900377;29;19956;-82
2021/03/09 09:46:47;;;;;;;;;;;;;;;3.77;100.00;101207.19;4862622;29;20045;-80
2021/03/09 09:49:15;;;;;;;;;;;;;;;3.81;100.00;101211.28;4872587;29;20011;-81
2021/03/09 09:51:42;;;;;;;;;;;;;;;3.83;100.00;101200.56;4856701;29;19962;-81
2021/03/09 09:54:19;;;;;;;;;;;;;;;3.84;100.00;101203.09;4852698;29;20407;-78
2021/03/09 09:56:56;;;;;;;;;;;;;;;3.84;100.00;101197.78;4834256;29;19932;-80
2021/03/09 09:59:47;;;;;;;;;;;;;;;3.89;100.00;101199.28;4841465;29;19928;-80
2021/03/09 10:02:21;;;;;;;;;;;;;;;3.93;100.00;101211.38;4828626;29;19936;-80
2021/03/09 10:04:47;;;;;;;;;;;;;;;3.95;100.00;101209.47;4794402;29;104247;-82
2021/03/09 10:07:27;;;;;;;;;;;;;;;3.99;100.00;101202.94;4786164;29;85004;-81
2021/03/09 10:10:01;;;;;;;;;;;;;;;4.05;100.00;101205.16;4359995;29;7651124;-82
2021/03/09 10:12:53;;;;;;;;;;;;;;;4.13;100.00;101199.28;4800393;29;20307;-84
2021/03/09 10:15:46;;;;;;;;;;;;;;;4.13;100.00;101202.78;4824757;29;19928;-82
2021/03/09 10:21:21;;;;;;;;;;;;;;;4.29;100.00;101205.19;4857638;29;19927;-82
2021/03/09 10:23:59;;;;;;;;;;;;;;;4.34;100.00;101204.81;4865170;29;19942;-82
2021/03/09 10:26:51;;;;;;;;;;;;;;;4.36;100.00;101203.75;4867190;29;20132;-81
2021/03/09 10:29:32;;;;;;;;;;;;;;;4.41;100.00;101206.91;4836142;29;19990;-81
2021/03/09 10:32:04;;;;;;;;;;;;;;;4.45;100.00;101194.25;4895115;29;19931;-84
2021/03/09 10:34:42;;;;;;;;;;;;;;;4.52;100.00;101206.13;4886638;29;19923;-79
2021/03/09 10:37:12;;;;;;;;;;;;;;;4.57;100.00;101203.94;4890161;29;20442;-83
2021/03/09 10:40:16;;;;;;;;;;;;;;;4.61;100.00;101202.78;4908583;28;19929;-82
2021/03/09 10:42:48;;;;;;;;;;;;;;;4.66;100.00;101200.63;4907102;29;20451;-81
2021/03/09 10:45:22;;;;;;;;;;;;;;;4.66;100.00;101197.97;4904969;29;19929;-86
2021/03/09 10:47:59;;;;;;;;;;;;;;;4.75;100.00;101194.59;4895095;29;20446;-82
2021/03/09 10:50:29;;;;;;;;;;;;;;;4.83;100.00;101195.81;4915467;29;19931;-84
2021/03/09 10:53:01;;;;;;;;;;;;;;;4.87;100.00;101202.59;4899123;29;20006;-81
2021/03/09 10:55:38;;;;;;;;;;;;;;;4.93;100.00;101192.34;4909816;29;20008;-83
2021/03/09 10:58:18;;;;;;;;;;;;;;;4.98;100.00;101189.34;4877324;29;20051;-83
2021/03/09 11:00:48;;;;;;;;;;;;;;;4.98;100.00;101189.34;4911135;29;20368;-82
2021/03/09 11:03:13;;;;;;;;;;;;;;;5.03;100.00;101192.47;4900310;29;19966;-81
2021/03/09 11:05:41;;;;;;;;;;;;;;;5.10;100.00;101184.88;4913302;28;19962;-81
2021/03/09 11:08:08;;;;;;;;;;;;;;;5.14;100.00;101195.13;4938411;28;19929;-82
2021/03/09 11:10:39;;;;;;;;;;;;;;;5.20;100.00;101183.19;4911650;28;20609;-80
2021/03/09 11:13:33;;;;;;;;;;;;;;;5.27;100.00;101188.88;4936343;28;20391;-80
2021/03/09 11:16:06;;;;;;;;;;;;;;;5.31;100.00;101185.00;4948777;28;20356;-82
2021/03/09 11:19:04;;;;;;;;;;;;;;;5.30;100.00;101189.47;4973518;28;19932;-84
2021/03/09 11:21:35;;;;;;;;;;;;;;;5.35;100.00;101191.75;4990743;28;19921;-83
2021/03/09 11:24:03;;;;;;;;;;;;;;;5.37;100.00;101185.34;4963904;28;19925;-84
2021/03/09 11:26:39;;;;;;;;;;;;;;;5.37;100.00;101184.50;4951886;28;20346;-80
2021/03/09 11:29:11;;;;;;;;;;;;;;;5.38;100.00;101194.19;4977316;28;19957;-83
2021/03/09 11:31:42;;;;;;;;;;;;;;;5.41;100.00;101191.31;4952927;28;19930;-85
2021/03/09 11:34:12;;;;;;;;;;;;;;;5.41;100.00;101189.50;4931541;28;19923;-82
2021/03/09 11:36:51;;;;;;;;;;;;;;;5.40;100.00;101187.78;4915244;28;19930;-85
2021/03/09 11:39:21;;;;;;;;;;;;;;;5.45;100.00;101192.75;4925066;28;19922;-82
2021/03/09 11:41:51;;;;;;;;;;;;;;;5.45;100.00;101187.41;4927855;28;19975;-83
2021/03/09 11:44:21;;;;;;;;;;;;;;;5.51;100.00;101192.25;4931301;28;20496;-81
2021/03/09 11:46:57;;;;;;;;;;;;;;;5.56;100.00;101198.06;4943455;28;19934;-80
2021/03/09 11:49:33;;;;;;;;;;;;;;;5.69;100.00;101191.75;4880993;29;20059;-81
2021/03/09 11:51:59;;;;;;;;;;;;;;;5.76;100.00;101190.31;4880740;29;20304;-79
2021/03/09 11:54:56;;;;;;;;;;;;;;;5.81;100.00;101193.44;4888912;29;19942;-80
2021/03/09 11:57:42;;;;;;;;;;;;;;;5.89;100.00;101180.34;4852724;29;19928;-80
2021/03/09 12:00:22;;;;;;;;;;;;;;;5.94;100.00;101169.34;4831016;29;19976;-80
2021/03/09 12:02:50;;;;;;;;;;;;;;;5.99;100.00;101175.16;4877430;28;19936;-79
2021/03/09 12:05:31;;;;;;;;;;;;;;;6.03;100.00;101173.94;4874107;29;19979;-79
2021/03/09 12:07:57;;;;;;;;;;;;;;;6.09;100.00;101174.25;4847530;29;20463;-79
2021/03/09 12:10:22;;;;;;;;;;;;;;;6.10;100.00;101173.31;4858527;29;19924;-79
2021/03/09 12:12:59;;;;;;;;;;;;;;;6.07;100.00;101173.56;4734056;29;3998928;-78
2021/03/09 12:15:28;;;;;;;;;;;;;;;6.03;100.00;101177.44;4837855;29;278517;-77
2021/03/09 12:18:05;;;;;;;;;;;;;;;5.98;100.00;101178.78;4361345;29;14415708;-80
2021/03/09 12:20:40;;;;;;;;;;;;;;;5.93;100.00;101176.50;4850369;29;19929;-81
2021/03/09 12:23:13;;;;;;;;;;;;;;;5.92;100.00;101188.09;4725838;29;4014964;-79
2021/03/09 12:25:44;;;;;;;;;;;;;;;5.87;100.00;101176.97;4828072;29;19935;-80
2021/03/09 12:28:16;;;;;;;;;;;;;;;5.92;100.00;101179.25;4846951;29;19924;-84
2021/03/09 12:30:44;;;;;;;;;;;;;;;5.95;100.00;101174.53;4858595;29;20293;-80
2021/03/09 12:33:23;;;;;;;;;;;;;;;6.00;100.00;101177.69;4853393;29;20006;-79
2021/03/09 12:35:49;;;;;;;;;;;;;;;6.08;100.00;101175.25;4883873;28;20089;-79
2021/03/09 12:38:43;;;;;;;;;;;;;;;6.11;100.00;101168.81;4908103;29;20371;-80
2021/03/09 12:41:07;;;;;;;;;;;;;;;6.12;100.00;101172.31;4910019;28;19922;-77
2021/03/09 12:43:51;;;;;;;;;;;;;;;6.12;100.00;101172.31;4923252;28;19926;-79
2021/03/09 12:46:49;;;;;;;;;;;;;;;6.16;100.00;101168.44;4933612;28;19922;-82
2021/03/09 12:49:17;;;;;;;;;;;;;;;6.24;100.00;101169.50;4951721;28;19945;-83
2021/03/09 12:51:49;;;;;;;;;;;;;;;6.30;100.00;101157.47;4930629;28;19922;-81
2021/03/09 12:54:22;;;;;;;;;;;;;;;6.44;100.00;101164.31;4936822;28;19925;-83
2021/03/09 12:56:51;;;;;;;;;;;;;;;6.51;100.00;101163.69;4960467;28;20055;-80
2021/03/09 12:59:22;;;;;;;;;;;;;;;6.51;100.00;101158.34;4968694;28;19922;-83
2021/03/09 13:01:50;;;;;;;;;;;;;;;6.47;100.00;101159.59;4957442;28;19922;-83
2021/03/09 13:04:30;;;;;;;;;;;;;;;6.53;100.00;101166.22;4963935;28;19930;-80